Time;durP1;ratioP1;P1;durP2;ratioP2;P2;SDS_P1;SDS_P2;PMS_P1;PMS_P2;Temp;Humidity;BMP_temperature;BMP_pressure;BME280_temperature;BME280_humidity;BME280_pressure;Samples;Min_cycle;Max_cycle;Signal;HPM_P1;HPM_P2
2022/05/04 00:01:20;;;;;;;10.30;5.73;;;12.40;1.00;;;;;;6101113;23;20493;-83
2022/05/04 00:03:49;;;;;;;9.70;6.20;;;12.30;1.00;;;;;;6119541;23;20397;-85
2022/05/04 00:06:21;;;;;;;9.63;6.30;;;12.30;1.00;;;;;;6123577;23;20430;-84
2022/05/04 00:08:49;;;;;;;9.30;6.50;;;12.20;1.00;;;;;;6108559;23;20397;-84
2022/05/04 00:11:19;;;;;;;10.70;5.93;;;12.10;1.00;;;;;;6132236;23;20429;-84
2022/05/04 00:13:51;;;;;;;9.80;6.37;;;12.10;1.00;;;;;;6133570;23;20414;-84
2022/05/04 00:16:19;;;;;;;10.33;6.53;;;12.00;1.00;;;;;;6128457;23;20401;-85
2022/05/04 00:18:52;;;;;;;9.53;6.23;;;11.90;1.00;;;;;;6126046;23;20444;-82
2022/05/04 00:21:19;;;;;;;9.93;7.70;;;11.90;1.00;;;;;;6139209;23;20410;-84
2022/05/04 00:23:50;;;;;;;10.07;7.37;;;11.80;1.00;;;;;;6109568;23;21205;-84
2022/05/04 00:26:22;;;;;;;10.50;6.77;;;11.80;1.00;;;;;;6136745;23;20430;-84
2022/05/04 00:28:52;;;;;;;9.57;6.87;;;11.70;1.00;;;;;;6122272;23;20485;-84
2022/05/04 00:31:19;;;;;;;9.67;6.73;;;11.70;1.00;;;;;;6132282;23;20390;-85
2022/05/04 00:33:52;;;;;;;8.80;6.57;;;11.70;1.00;;;;;;6129386;23;20435;-83
2022/05/04 00:36:19;;;;;;;9.43;6.43;;;11.70;1.00;;;;;;6144882;23;20460;-83
2022/05/04 00:38:52;;;;;;;9.70;7.20;;;11.60;1.00;;;;;;6130264;23;20417;-84
2022/05/04 00:41:20;;;;;;;8.20;6.43;;;11.70;1.00;;;;;;6131416;23;20413;-84
2022/05/04 00:43:53;;;;;;;8.97;6.10;;;11.70;1.00;;;;;;6129758;23;20402;-85
2022/05/04 00:46:20;;;;;;;8.63;6.50;;;11.60;1.00;;;;;;6129858;23;21235;-84
2022/05/04 00:48:51;;;;;;;10.10;6.83;;;11.60;1.00;;;;;;6114556;23;20634;-82
2022/05/04 00:51:20;;;;;;;9.10;7.40;;;11.60;1.00;;;;;;6143380;23;20400;-82
2022/05/04 00:53:50;;;;;;;8.67;5.93;;;11.60;1.00;;;;;;6141104;23;20403;-84
2022/05/04 00:56:20;;;;;;;10.33;6.67;;;11.50;1.00;;;;;;6114414;23;20438;-84
2022/05/04 00:58:59;;;;;;;9.10;6.70;;;11.50;1.00;;;;;;6128677;23;20404;-83
2022/05/04 01:01:49;;;;;;;8.70;6.77;;;11.40;1.00;;;;;;6046064;23;20412;-84
2022/05/04 01:04:43;;;;;;;10.43;6.27;;;11.30;1.00;;;;;;6062176;23;21426;-88
2022/05/04 01:07:21;;;;;;;10.00;7.23;;;11.20;1.00;;;;;;6108365;23;21060;-84
2022/05/04 01:09:52;;;;;;;10.17;6.60;;;11.20;1.00;;;;;;6109908;23;20443;-83
2022/05/04 01:12:29;;;;;;;10.20;7.00;;;11.10;1.00;;;;;;6117192;23;20438;-84
2022/05/04 01:15:01;;;;;;;10.93;7.10;;;11.00;1.00;;;;;;6131476;23;20408;-84
2022/05/04 01:17:31;;;;;;;9.87;6.60;;;11.00;1.00;;;;;;6102969;23;24318;-85
2022/05/04 01:20:02;;;;;;;9.93;7.43;;;10.90;1.00;;;;;;6119148;23;20399;-84
2022/05/04 01:22:33;;;;;;;10.47;7.70;;;10.90;1.00;;;;;;6128679;23;20390;-85
2022/05/04 01:25:02;;;;;;;16.20;7.40;;;10.80;1.00;;;;;;6132264;23;20399;-84
2022/05/04 01:27:32;;;;;;;10.83;7.00;;;10.80;1.00;;;;;;6118152;23;20489;-84
2022/05/04 01:30:03;;;;;;;10.63;7.27;;;10.70;1.00;;;;;;6130657;23;20407;-85
2022/05/04 01:32:31;;;;;;;10.20;6.97;;;10.80;1.00;;;;;;6138447;23;20418;-82
2022/05/04 01:35:02;;;;;;;8.90;7.03;;;10.70;1.00;;;;;;6109987;23;20418;-84
2022/05/04 01:37:42;;;;;;;11.03;7.33;;;10.70;1.00;;;;;;6109101;23;21701;-82
2022/05/04 01:40:11;;;;;;;12.10;8.37;;;10.70;1.00;;;;;;6122074;23;20398;-85
2022/05/04 01:42:42;;;;;;;9.70;7.50;;;10.70;1.00;;;;;;6126566;23;20414;-83
2022/05/04 01:45:12;;;;;;;12.50;8.03;;;10.70;1.00;;;;;;6134160;23;20391;-83
2022/05/04 01:47:41;;;;;;;9.53;7.37;;;10.60;1.00;;;;;;6101092;23;20400;-84
2022/05/04 01:50:12;;;;;;;12.10;7.10;;;10.60;1.00;;;;;;6120535;23;20443;-85
2022/05/04 01:53:01;;;;;;;11.80;8.70;;;10.60;1.00;;;;;;6117275;23;20389;-85
2022/05/04 01:55:43;;;;;;;12.13;8.30;;;10.60;1.00;;;;;;6083033;23;20465;-83
2022/05/04 01:58:13;;;;;;;10.33;7.70;;;10.50;1.00;;;;;;6115793;23;20464;-83
2022/05/04 02:00:42;;;;;;;11.10;8.17;;;10.40;1.00;;;;;;6116804;23;20405;-85
2022/05/04 02:03:11;;;;;;;10.37;7.90;;;10.50;1.00;;;;;;6111945;23;20434;-85
2022/05/04 02:05:42;;;;;;;9.40;8.03;;;10.40;1.00;;;;;;6123479;23;20478;-86
2022/05/04 02:08:21;;;;;;;11.03;7.97;;;10.40;1.00;;;;;;6118165;23;20434;-85
2022/05/04 02:16:52;;;;;;;13.30;8.67;;;10.40;1.00;;;;;;6118087;23;20615;-84
2022/05/04 02:19:20;;;;;;;10.20;7.80;;;10.30;1.00;;;;;;6133883;23;20559;-85
2022/05/04 02:24:51;;;;;;;11.60;8.90;;;10.30;1.00;;;;;;6092061;23;21198;-83
2022/05/04 02:27:21;;;;;;;14.93;9.23;;;10.30;1.00;;;;;;6124110;23;20406;-81
2022/05/04 02:30:01;;;;;;;12.03;8.77;;;10.30;1.00;;;;;;6114310;23;20391;-83
2022/05/04 02:32:31;;;;;;;13.07;9.50;;;10.30;1.00;;;;;;6128812;23;20416;-82
2022/05/04 02:38:00;;;;;;;15.50;8.60;;;10.30;1.00;;;;;;6117158;23;20423;-82
2022/05/04 02:40:39;;;;;;;15.70;9.83;;;10.20;1.00;;;;;;6126881;23;20403;-83
2022/05/04 02:43:40;;;;;;;15.20;9.00;;;10.20;1.00;;;;;;6119382;23;20410;-83
2022/05/04 02:46:13;;;;;;;12.83;9.00;;;10.10;1.00;;;;;;6117158;23;20386;-85
2022/05/04 02:48:41;;;;;;;11.43;8.70;;;10.10;1.00;;;;;;6105209;23;20392;-83
2022/05/04 02:51:20;;;;;;;10.40;8.73;;;10.10;1.00;;;;;;6120849;23;20394;-83
2022/05/04 02:53:52;;;;;;;13.33;9.27;;;10.00;1.00;;;;;;6130259;23;20425;-83
2022/05/04 02:56:23;;;;;;;15.33;10.40;;;9.90;1.00;;;;;;6129610;23;20480;-84
2022/05/04 02:59:01;;;;;;;14.80;9.17;;;9.90;1.00;;;;;;6132928;23;20463;-85
2022/05/04 03:04:24;;;;;;;14.73;9.67;;;9.80;1.00;;;;;;6110221;23;20405;-83
2022/05/04 03:06:59;;;;;;;12.77;8.43;;;9.70;1.00;;;;;;6094569;23;20465;-84
2022/05/04 03:09:32;;;;;;;11.90;9.40;;;9.70;1.00;;;;;;6117594;23;20383;-83
2022/05/04 03:12:02;;;;;;;10.60;9.50;;;9.70;1.00;;;;;;6131952;23;20404;-84
2022/05/04 03:14:32;;;;;;;14.13;10.40;;;9.70;1.00;;;;;;6059912;23;20464;-85
2022/05/04 03:17:02;;;;;;;14.90;10.70;;;9.70;1.00;;;;;;6115025;23;20387;-84
2022/05/04 03:19:33;;;;;;;12.87;9.00;;;9.70;1.00;;;;;;6141789;23;20467;-84
2022/05/04 03:22:13;;;;;;;14.67;10.40;;;9.70;1.00;;;;;;6111984;23;20449;-84
2022/05/04 03:24:42;;;;;;;13.20;9.90;;;9.70;1.00;;;;;;6100033;23;20969;-84
2022/05/04 03:27:13;;;;;;;13.90;10.50;;;9.70;1.00;;;;;;6129040;23;20686;-85
2022/05/04 03:29:50;;;;;;;15.80;10.60;;;9.80;1.00;;;;;;6120453;23;20477;-84
2022/05/04 03:32:33;;;;;;;11.83;9.07;;;9.90;1.00;;;;;;6095861;23;20449;-84
2022/05/04 03:35:03;;;;;;;13.00;10.20;;;9.90;1.00;;;;;;6111282;23;20443;-84
2022/05/04 03:37:30;;;;;;;16.60;10.50;;;10.00;1.00;;;;;;6127384;23;20386;-85
2022/05/04 03:40:00;;;;;;;15.40;11.10;;;10.00;1.00;;;;;;6105020;23;20451;-87
2022/05/04 03:42:41;;;;;;;14.10;10.60;;;10.00;1.00;;;;;;6114318;23;20403;-85
2022/05/04 03:45:12;;;;;;;13.77;10.77;;;10.00;1.00;;;;;;6109879;23;20426;-84
2022/05/04 03:47:51;;;;;;;17.53;11.37;;;10.00;1.00;;;;;;6131306;23;20439;-85
2022/05/04 03:53:30;;;;;;;16.77;11.60;;;10.10;1.00;;;;;;6095645;23;20741;-84
2022/05/04 03:56:02;;;;;;;18.00;11.17;;;10.10;1.00;;;;;;6103908;23;20405;-87
2022/05/04 03:58:53;;;;;;;18.07;10.53;;;10.20;1.00;;;;;;6098228;23;20405;-84
2022/05/04 04:02:11;;;;;;;16.63;12.13;;;10.30;1.00;;;;;;6083618;23;21293;-84
2022/05/04 04:08:12;;;;;;;18.33;11.90;;;10.30;1.00;;;;;;6002111;23;20561;-82
2022/05/04 04:10:41;;;;;;;18.73;10.83;;;10.30;1.00;;;;;;6071203;23;20415;-84
2022/05/04 04:13:43;;;;;;;21.17;10.57;;;10.30;1.00;;;;;;6077405;23;20404;-84
2022/05/04 04:16:49;;;;;;;17.00;13.00;;;10.40;1.00;;;;;;6117010;23;20435;-86
2022/05/04 04:19:31;;;;;;;17.73;11.30;;;10.40;1.00;;;;;;6121230;23;20407;-84
2022/05/04 04:22:01;;;;;;;19.00;11.47;;;10.40;1.00;;;;;;6109005;23;20398;-83
2022/05/04 04:25:02;;;;;;;19.30;12.80;;;10.50;1.00;;;;;;6107010;23;20407;-84
2022/05/04 04:27:33;;;;;;;16.33;11.30;;;10.50;1.00;;;;;;6130703;23;20402;-86
2022/05/04 04:30:24;;;;;;;;;;;;;;;;;;;;;
2022/05/04 04:32:52;;;;;;;15.10;10.93;;;10.70;1.00;;;;;;6075219;23;50723;-84
2022/05/04 04:35:53;;;;;;;14.30;11.43;;;10.80;1.00;;;;;;6117901;23;20392;-86
2022/05/04 04:44:52;;;;;;;14.13;11.20;;;11.00;1.00;;;;;;6026982;23;20577;-86
2022/05/04 04:51:13;;;;;;;16.73;12.13;;;11.10;1.00;;;;;;6077068;23;20449;-87
2022/05/04 04:53:41;;;;;;;16.60;12.07;;;11.30;1.00;;;;;;6063547;23;20396;-88
2022/05/04 04:56:32;;;;;;;;;;;;;;;;;;;;;
2022/05/04 05:41:50;;;;;;;;;;;;;;;;;;;;;
2022/05/04 05:47:52;;;;;;;25.83;11.90;;;13.40;1.00;;;;;;6080462;23;20492;-87
2022/05/04 05:54:43;;;;;;;17.60;13.13;;;13.80;1.00;;;;;;6008324;23;21072;-87
2022/05/04 06:23:12;;;;;;;17.60;11.00;;;15.00;1.00;;;;;;6010243;23;20886;-85
2022/05/04 07:33:42;;;;;;;12.17;7.50;;;17.30;1.00;;;;;;5902385;24;20392;-85
2022/05/04 07:36:12;;;;;;;13.23;8.20;;;17.30;1.00;;;;;;5906337;24;20477;-86
2022/05/04 07:42:24;;;;;;;13.50;8.60;;;17.60;1.00;;;;;;5835971;24;20441;-86
2022/05/04 07:45:22;;;;;;;15.90;9.40;;;17.90;1.00;;;;;;5937578;24;20402;-86
2022/05/04 07:47:51;;;;;;;11.93;8.00;;;18.00;1.00;;;;;;5930356;24;20408;-87
2022/05/04 07:51:12;;;;;;;11.53;7.60;;;17.90;1.00;;;;;;5952835;24;20453;-85
2022/05/04 08:05:22;;;;;;;15.80;10.50;;;17.90;1.00;;;;;;6010388;23;20440;-83
2022/05/04 08:22:14;;;;;;;8.77;4.87;;;18.60;1.00;;;;;;5919420;23;20413;-84
2022/05/04 08:41:02;;;;;;;8.57;4.73;;;19.20;1.00;;;;;;5830797;24;20460;-85
2022/05/04 08:47:14;;;;;;;8.37;4.23;;;19.20;1.00;;;;;;6005439;23;20412;-85
2022/05/04 08:53:24;;;;;;;11.20;4.40;;;19.40;1.00;;;;;;6049422;23;20515;-85
2022/05/04 08:56:13;;;;;;;9.30;4.37;;;19.60;1.00;;;;;;6060724;23;20433;-86
2022/05/04 09:10:01;;;;;;;7.50;3.73;;;20.90;1.00;;;;;;5936872;24;20460;-85
2022/05/04 09:16:03;;;;;;;8.47;4.20;;;21.40;1.00;;;;;;5882582;24;21233;-85
2022/05/04 09:19:23;;;;;;;10.20;4.70;;;21.70;1.00;;;;;;6009445;23;21393;-86
2022/05/04 09:28:45;;;;;;;9.27;5.20;;;22.10;1.00;;;;;;5937500;23;20554;-85
2022/05/04 09:47:31;;;;;;;9.30;4.27;;;22.50;1.00;;;;;;6017635;23;20482;-86
2022/05/04 09:53:43;;;;;;;9.50;4.90;;;23.20;1.00;;;;;;5978388;23;20572;-87
2022/05/04 09:56:24;;;;;;;12.83;5.97;;;23.20;1.00;;;;;;6095421;23;20386;-85
2022/05/04 10:06:05;;;;;;;12.57;6.20;;;22.10;1.00;;;;;;5995401;23;20439;-87
2022/05/04 10:15:55;;;;;;;9.03;4.90;;;21.90;1.00;;;;;;5798216;24;21266;-86
2022/05/04 11:08:51;;;;;;;;;;;;;;;;;;;;;
2022/05/04 11:15:24;;;;;;;10.93;6.00;;;21.60;1.00;;;;;;5941772;23;22168;-88
2022/05/04 14:32:16;;;;;;;;;;;;;;;;;;;;;
2022/05/04 14:34:46;;;;;;;9.23;6.00;;;25.30;1.00;;;;;;6021138;23;21009;-84
2022/05/04 14:37:42;;;;;;;9.17;6.20;;;24.60;1.00;;;;;;6068130;23;20401;-81
2022/05/04 14:40:14;;;;;;;9.00;5.77;;;24.20;1.00;;;;;;6090344;23;20400;-82
2022/05/04 14:42:55;;;;;;;11.67;7.53;;;24.00;1.00;;;;;;6119868;23;20380;-82
2022/05/04 14:45:45;;;;;;;13.20;7.77;;;23.90;1.00;;;;;;6092699;23;20411;-83
2022/05/04 14:48:56;;;;;;;14.43;7.27;;;23.70;1.00;;;;;;6082912;23;20417;-82
2022/05/04 14:51:32;;;;;;;13.87;7.90;;;23.70;1.00;;;;;;6096900;23;20459;-81
2022/05/04 14:54:21;;;;;;;12.97;7.70;;;23.60;1.00;;;;;;6110796;23;20406;-81
2022/05/04 14:56:53;;;;;;;10.60;7.23;;;23.50;1.00;;;;;;6099582;23;20412;-83
2022/05/04 14:59:27;;;;;;;10.30;6.30;;;23.40;1.00;;;;;;6117367;23;20455;-82
2022/05/04 15:02:05;;;;;;;14.50;7.57;;;23.30;1.00;;;;;;6091156;23;20427;-84
2022/05/04 15:07:48;;;;;;;10.57;7.23;;;23.40;1.00;;;;;;6057964;23;20527;-82
2022/05/04 15:10:24;;;;;;;10.60;6.60;;;23.60;1.00;;;;;;5931224;23;20484;-84
2022/05/04 15:13:15;;;;;;;14.00;7.70;;;23.80;1.00;;;;;;5977226;23;21360;-81
2022/05/04 15:15:45;;;;;;;10.37;6.77;;;24.10;1.00;;;;;;6037301;23;20388;-82
2022/05/04 15:21:32;;;;;;;9.30;5.53;;;23.90;1.00;;;;;;6118597;23;20741;-80
2022/05/04 15:24:34;;;;;;;20.60;11.80;;;23.50;1.00;;;;;;6103990;23;20443;-78
2022/05/04 15:27:06;;;;;;;10.33;7.10;;;23.40;1.00;;;;;;6068405;23;20435;-83
2022/05/04 15:29:35;;;;;;;12.57;6.87;;;23.40;1.00;;;;;;6095047;23;20571;-82
2022/05/04 15:32:14;;;;;;;11.67;7.00;;;23.30;1.00;;;;;;6118716;23;20422;-83
2022/05/04 15:35:04;;;;;;;9.17;6.00;;;23.10;1.00;;;;;;6080863;23;20409;-84
2022/05/04 15:37:35;;;;;;;9.60;6.30;;;23.00;1.00;;;;;;6032777;23;20442;-83
2022/05/04 15:40:15;;;;;;;10.67;6.50;;;22.90;1.00;;;;;;6063909;23;20391;-83
2022/05/04 15:43:04;;;;;;;18.13;8.40;;;22.80;1.00;;;;;;6074742;23;20388;-83
2022/05/04 15:45:34;;;;;;;17.60;8.50;;;22.70;1.00;;;;;;6077244;23;20457;-81
2022/05/04 15:51:04;;;;;;;10.80;6.80;;;22.30;1.00;;;;;;6065767;23;20403;-83
2022/05/04 15:53:48;;;;;;;12.10;6.60;;;22.20;1.00;;;;;;6062936;23;20456;-82
2022/05/04 15:56:23;;;;;;;41.60;9.50;;;22.10;1.00;;;;;;6053475;23;20525;-82
2022/05/04 15:59:23;;;;;;;12.17;6.37;;;22.00;1.00;;;;;;6063793;23;20417;-84
2022/05/04 16:01:57;;;;;;;13.00;9.43;;;21.90;1.00;;;;;;6025898;23;20596;-84
2022/05/04 16:07:55;;;;;;;11.20;6.13;;;21.70;1.00;;;;;;5993476;23;20477;-83
2022/05/04 16:10:25;;;;;;;12.87;6.97;;;21.60;1.00;;;;;;6073319;23;20622;-87
2022/05/04 16:12:54;;;;;;;12.20;6.87;;;21.50;1.00;;;;;;6057801;23;20382;-87
2022/05/04 16:15:35;;;;;;;12.70;6.87;;;21.30;1.00;;;;;;6024011;23;20401;-85
2022/05/04 16:24:04;;;;;;;12.20;6.20;;;21.20;1.00;;;;;;6064883;23;20617;-84
2022/05/04 16:26:57;;;;;;;;;;;;;;;;;;;;;
2022/05/04 16:29:34;;;;;;;13.90;7.70;;;20.90;1.00;;;;;;6022393;23;38982;-85
2022/05/04 16:32:05;;;;;;;12.80;8.10;;;20.90;1.00;;;;;;6045461;23;20473;-87
2022/05/04 16:37:55;;;;;;;11.53;7.67;;;20.70;1.00;;;;;;5932929;23;20404;-84
2022/05/04 16:40:48;;;;;;;11.17;7.10;;;20.70;1.00;;;;;;5939955;23;20487;-86
2022/05/04 16:43:25;;;;;;;10.70;6.93;;;20.70;1.00;;;;;;6058008;23;20433;-84
2022/05/04 16:46:16;;;;;;;13.77;6.57;;;20.80;1.00;;;;;;6067220;23;20392;-85
2022/05/04 16:48:57;;;;;;;10.80;6.50;;;20.70;1.00;;;;;;5974241;23;20389;-84
2022/05/04 16:51:34;;;;;;;10.50;6.10;;;20.70;1.00;;;;;;6080971;23;20479;-84
2022/05/04 16:54:53;;;;;;;11.20;7.27;;;20.70;1.00;;;;;;6078943;23;20409;-85
2022/05/04 16:57:26;;;;;;;16.40;7.87;;;20.60;1.00;;;;;;6025298;23;20389;-84
2022/05/04 17:00:23;;;;;;;12.57;6.53;;;20.60;1.00;;;;;;6059623;23;20558;-86
2022/05/04 17:03:14;;;;;;;13.10;6.97;;;20.50;1.00;;;;;;6052704;23;20512;-86
2022/05/04 17:06:04;;;;;;;11.50;6.80;;;20.40;1.00;;;;;;5990482;23;20524;-84
2022/05/04 17:08:55;;;;;;;9.97;5.83;;;20.40;1.00;;;;;;5995317;23;20622;-84
2022/05/04 17:11:25;;;;;;;12.10;6.20;;;20.20;1.00;;;;;;5997211;23;20419;-85
2022/05/04 17:14:45;;;;;;;11.47;7.10;;;20.20;1.00;;;;;;6017782;23;20388;-85
2022/05/04 17:20:53;;;;;;;11.33;6.80;;;20.20;1.00;;;;;;5914800;23;20432;-86
2022/05/04 17:26:54;;;;;;;11.20;6.00;;;20.10;1.00;;;;;;5755305;24;20509;-85
2022/05/04 17:58:14;;;;;;;11.43;5.63;;;19.60;1.00;;;;;;5964837;23;20486;-84
2022/05/04 18:00:44;;;;;;;10.90;6.00;;;19.60;1.00;;;;;;6021144;23;20383;-85
2022/05/04 18:03:34;;;;;;;9.63;5.77;;;19.60;1.00;;;;;;6014902;23;20446;-86
2022/05/04 18:16:35;;;;;;;10.30;5.50;;;19.30;1.00;;;;;;5992865;23;20399;-84
2022/05/04 18:19:26;;;;;;;10.60;5.80;;;19.20;1.00;;;;;;6024519;23;20476;-86
2022/05/04 18:21:56;;;;;;;12.83;6.70;;;19.20;1.00;;;;;;6015427;23;20478;-85
2022/05/04 18:24:34;;;;;;;11.67;6.70;;;19.10;1.00;;;;;;6027052;23;20535;-84
2022/05/04 19:00:16;;;;;;;11.10;7.17;;;18.30;1.00;;;;;;6160921;22;20606;-86
2022/05/04 19:02:45;;;;;;;13.53;6.90;;;18.20;1.00;;;;;;6233989;22;20453;-86
2022/05/04 19:05:34;;;;;;;11.20;6.63;;;18.20;1.00;;;;;;6249964;22;20456;-84
2022/05/04 19:32:13;;;;;;;9.60;6.40;;;17.70;1.00;;;;;;5967153;23;20426;-85
2022/05/04 19:34:47;;;;;;;10.70;6.63;;;17.60;1.00;;;;;;6015841;23;20408;-86
2022/05/04 19:37:26;;;;;;;10.60;6.80;;;17.50;1.00;;;;;;6080902;23;20473;-85
2022/05/04 19:39:56;;;;;;;12.37;7.57;;;17.50;1.00;;;;;;6108014;23;20422;-86
2022/05/04 19:55:55;;;;;;;9.67;6.07;;;17.10;1.00;;;;;;6065412;23;20402;-85
2022/05/04 20:02:03;;;;;;;9.47;6.33;;;16.90;1.00;;;;;;6015392;23;20431;-85
2022/05/04 20:04:54;;;;;;;9.70;6.77;;;16.90;1.00;;;;;;6035959;23;20374;-86
2022/05/04 20:30:06;;;;;;;11.00;7.87;;;16.80;1.00;;;;;;5917374;23;20385;-85
2022/05/04 20:39:05;;;;;;;12.47;8.13;;;16.80;1.00;;;;;;5964718;23;20413;-85
2022/05/04 20:42:08;;;;;;;13.90;7.80;;;16.80;1.00;;;;;;6069598;23;20386;-84
2022/05/04 20:48:36;;;;;;;10.70;7.00;;;16.90;1.00;;;;;;6078065;23;20443;-85
2022/05/04 20:57:14;;;;;;;11.20;7.17;;;16.90;1.00;;;;;;6149283;22;20612;-83
2022/05/04 21:00:14;;;;;;;10.20;7.57;;;16.90;1.00;;;;;;6231774;22;20416;-84
2022/05/04 21:02:56;;;;;;;12.87;7.90;;;16.90;1.00;;;;;;6175471;22;20553;-83
2022/05/04 21:05:45;;;;;;;10.83;7.43;;;16.90;1.00;;;;;;6185906;22;20426;-85
2022/05/04 21:08:16;;;;;;;9.90;7.33;;;17.00;1.00;;;;;;6194365;22;20532;-84
2022/05/04 21:10:56;;;;;;;9.30;6.60;;;17.00;1.00;;;;;;6180369;23;20416;-86
2022/05/04 21:24:14;;;;;;;10.03;6.70;;;17.00;1.00;;;;;;6074587;23;20823;-87
2022/05/04 21:47:14;;;;;;;10.70;7.20;;;16.90;1.00;;;;;;6036626;23;20403;-87
2022/05/04 21:50:05;;;;;;;15.10;8.10;;;16.90;1.00;;;;;;6103242;23;20535;-87
2022/05/04 22:09:24;;;;;;;11.87;6.80;;;16.70;1.00;;;;;;6018744;23;20567;-88
2022/05/04 22:16:07;;;;;;;9.97;7.50;;;16.70;1.00;;;;;;6075547;23;20393;-87
2022/05/04 22:19:24;;;;;;;10.77;7.50;;;16.60;1.00;;;;;;6064292;23;20388;-88
2022/05/04 22:45:57;;;;;;;9.93;6.80;;;16.70;1.00;;;;;;5950035;23;21080;-87
2022/05/04 22:52:07;;;;;;;12.93;7.80;;;16.70;1.00;;;;;;6036625;23;20391;-87
2022/05/04 23:25:05;;;;;;;9.43;7.10;;;16.60;1.00;;;;;;5824280;24;20453;-87
2022/05/04 23:31:35;;;;;;;9.93;7.27;;;16.40;1.00;;;;;;5874899;24;20448;-87
2022/05/04 23:37:46;;;;;;;16.73;8.17;;;16.20;1.00;;;;;;5940009;24;20392;-86
2022/05/04 23:41:07;;;;;;;9.60;6.93;;;16.10;1.00;;;;;;5956634;24;20433;-86
2022/05/04 23:44:06;;;;;;;9.43;7.70;;;16.10;1.00;;;;;;5955928;24;20403;-86
2022/05/04 23:49:57;;;;;;;10.47;7.37;;;16.00;1.00;;;;;;5911872;24;20447;-86
2022/05/04 23:53:07;;;;;;;10.53;7.33;;;16.00;1.00;;;;;;5914208;24;20477;-86
2022/05/04 23:55:38;;;;;;;10.67;8.30;;;16.00;1.00;;;;;;5918809;24;20512;-86
